sensor_id;sensor_type;location;lat;lon;timestamp;temperature;humidity
19206;DHT22;59358;52.134;5.596;2023-06-26T00:01:30;23.30;99.90
19206;DHT22;59358;52.134;5.596;2023-06-26T00:03:58;23.20;99.90
19206;DHT22;59358;52.134;5.596;2023-06-26T00:06:25;23.20;99.90
19206;DHT22;59358;52.134;5.596;2023-06-26T00:08:55;23.20;99.90
19206;DHT22;59358;52.134;5.596;2023-06-26T00:11:24;23.20;99.90
19206;DHT22;59358;52.134;5.596;2023-06-26T00:13:52;23.30;99.90
19206;DHT22;59358;52.134;5.596;2023-06-26T00:16:19;23.30;99.90
19206;DHT22;59358;52.134;5.596;2023-06-26T00:18:46;23.30;99.90
19206;DHT22;59358;52.134;5.596;2023-06-26T00:21:13;23.30;99.90
19206;DHT22;59358;52.134;5.596;2023-06-26T00:23:40;23.30;99.90
19206;DHT22;59358;52.134;5.596;2023-06-26T00:26:08;23.30;99.90
19206;DHT22;59358;52.134;5.596;2023-06-26T00:28:35;23.40;99.90
19206;DHT22;59358;52.134;5.596;2023-06-26T00:31:02;23.40;99.90
19206;DHT22;59358;52.134;5.596;2023-06-26T00:33:29;23.50;99.90
19206;DHT22;59358;52.134;5.596;2023-06-26T00:35:56;23.40;99.90
19206;DHT22;59358;52.134;5.596;2023-06-26T00:38:23;23.40;99.90
19206;DHT22;59358;52.134;5.596;2023-06-26T00:40:50;23.40;99.90
19206;DHT22;59358;52.134;5.596;2023-06-26T00:43:18;23.40;99.90
19206;DHT22;59358;52.134;5.596;2023-06-26T00:45:45;23.40;99.90
19206;DHT22;59358;52.134;5.596;2023-06-26T00:48:12;23.30;99.90
19206;DHT22;59358;52.134;5.596;2023-06-26T00:50:39;23.30;99.90
19206;DHT22;59358;52.134;5.596;2023-06-26T00:53:07;23.20;99.90
19206;DHT22;59358;52.134;5.596;2023-06-26T00:55:35;23.20;99.90
19206;DHT22;59358;52.134;5.596;2023-06-26T00:58:02;23.20;99.90
19206;DHT22;59358;52.134;5.596;2023-06-26T01:00:30;23.10;99.90
19206;DHT22;59358;52.134;5.596;2023-06-26T01:02:57;23.10;99.90
19206;DHT22;59358;52.134;5.596;2023-06-26T01:05:24;23.10;99.90
19206;DHT22;59358;52.134;5.596;2023-06-26T01:07:52;23.10;99.90
19206;DHT22;59358;52.134;5.596;2023-06-26T01:10:19;23.00;99.90
19206;DHT22;59358;52.134;5.596;2023-06-26T01:12:46;23.00;99.90
19206;DHT22;59358;52.134;5.596;2023-06-26T01:15:13;23.00;99.90
19206;DHT22;59358;52.134;5.596;2023-06-26T01:17:41;22.90;99.90
19206;DHT22;59358;52.134;5.596;2023-06-26T01:20:11;22.90;99.90
19206;DHT22;59358;52.134;5.596;2023-06-26T01:22:42;22.90;99.90
19206;DHT22;59358;52.134;5.596;2023-06-26T01:25:17;22.90;99.90
19206;DHT22;59358;52.134;5.596;2023-06-26T01:27:49;22.90;99.90
19206;DHT22;59358;52.134;5.596;2023-06-26T01:30:17;22.90;99.90
19206;DHT22;59358;52.134;5.596;2023-06-26T01:32:45;22.80;99.90
19206;DHT22;59358;52.134;5.596;2023-06-26T01:35:12;22.70;99.90
19206;DHT22;59358;52.134;5.596;2023-06-26T01:37:40;22.70;99.90
19206;DHT22;59358;52.134;5.596;2023-06-26T01:40:07;22.80;99.90
19206;DHT22;59358;52.134;5.596;2023-06-26T01:42:35;22.80;99.90
19206;DHT22;59358;52.134;5.596;2023-06-26T01:45:09;22.70;99.90
19206;DHT22;59358;52.134;5.596;2023-06-26T01:47:38;22.70;99.90
19206;DHT22;59358;52.134;5.596;2023-06-26T01:50:11;22.70;99.90
19206;DHT22;59358;52.134;5.596;2023-06-26T01:52:42;22.80;99.90
19206;DHT22;59358;52.134;5.596;2023-06-26T01:55:15;22.70;99.90
19206;DHT22;59358;52.134;5.596;2023-06-26T01:57:45;22.60;99.90
19206;DHT22;59358;52.134;5.596;2023-06-26T02:00:16;22.60;99.90
19206;DHT22;59358;52.134;5.596;2023-06-26T02:02:44;22.60;99.90
19206;DHT22;59358;52.134;5.596;2023-06-26T02:05:12;22.50;99.90
19206;DHT22;59358;52.134;5.596;2023-06-26T02:07:39;22.60;99.90
19206;DHT22;59358;52.134;5.596;2023-06-26T02:10:06;22.50;99.90
19206;DHT22;59358;52.134;5.596;2023-06-26T02:12:34;22.50;99.90
19206;DHT22;59358;52.134;5.596;2023-06-26T02:15:01;22.50;99.90
19206;DHT22;59358;52.134;5.596;2023-06-26T02:17:29;22.40;99.90
19206;DHT22;59358;52.134;5.596;2023-06-26T02:19:56;22.30;99.90
19206;DHT22;59358;52.134;5.596;2023-06-26T02:22:23;22.20;99.90
19206;DHT22;59358;52.134;5.596;2023-06-26T02:24:50;22.20;99.90
19206;DHT22;59358;52.134;5.596;2023-06-26T02:27:16;22.10;99.90
19206;DHT22;59358;52.134;5.596;2023-06-26T02:29:43;22.00;99.90
19206;DHT22;59358;52.134;5.596;2023-06-26T02:32:10;21.90;99.90
19206;DHT22;59358;52.134;5.596;2023-06-26T02:34:38;21.90;99.90
19206;DHT22;59358;52.134;5.596;2023-06-26T02:37:05;21.80;99.90
19206;DHT22;59358;52.134;5.596;2023-06-26T02:39:33;21.80;99.90
19206;DHT22;59358;52.134;5.596;2023-06-26T02:42:00;21.70;99.90
19206;DHT22;59358;52.134;5.596;2023-06-26T02:44:27;21.70;99.90
19206;DHT22;59358;52.134;5.596;2023-06-26T02:46:54;21.70;99.90
19206;DHT22;59358;52.134;5.596;2023-06-26T02:49:20;21.60;99.90
19206;DHT22;59358;52.134;5.596;2023-06-26T02:51:48;21.50;99.90
19206;DHT22;59358;52.134;5.596;2023-06-26T02:54:15;21.50;99.90
19206;DHT22;59358;52.134;5.596;2023-06-26T02:56:42;21.50;99.90
19206;DHT22;59358;52.134;5.596;2023-06-26T02:59:09;21.50;99.90
19206;DHT22;59358;52.134;5.596;2023-06-26T03:01:36;21.40;99.90
19206;DHT22;59358;52.134;5.596;2023-06-26T03:04:04;21.40;99.90
19206;DHT22;59358;52.134;5.596;2023-06-26T03:06:30;21.30;99.90
19206;DHT22;59358;52.134;5.596;2023-06-26T03:08:59;21.30;99.90
19206;DHT22;59358;52.134;5.596;2023-06-26T03:11:26;21.10;99.90
19206;DHT22;59358;52.134;5.596;2023-06-26T03:13:53;21.10;99.90
19206;DHT22;59358;52.134;5.596;2023-06-26T03:16:20;21.00;99.90
19206;DHT22;59358;52.134;5.596;2023-06-26T03:18:46;21.00;99.90
19206;DHT22;59358;52.134;5.596;2023-06-26T03:21:13;21.00;99.90
19206;DHT22;59358;52.134;5.596;2023-06-26T03:23:41;20.90;99.90
19206;DHT22;59358;52.134;5.596;2023-06-26T03:26:09;20.90;99.90
19206;DHT22;59358;52.134;5.596;2023-06-26T03:28:36;20.90;99.90
19206;DHT22;59358;52.134;5.596;2023-06-26T03:31:03;20.90;99.90
19206;DHT22;59358;52.134;5.596;2023-06-26T03:33:30;20.80;99.90
19206;DHT22;59358;52.134;5.596;2023-06-26T03:35:57;20.80;99.90
19206;DHT22;59358;52.134;5.596;2023-06-26T03:38:24;20.80;99.90
19206;DHT22;59358;52.134;5.596;2023-06-26T03:40:51;20.80;99.90
19206;DHT22;59358;52.134;5.596;2023-06-26T03:43:20;20.80;99.90
19206;DHT22;59358;52.134;5.596;2023-06-26T03:45:46;20.80;99.90
19206;DHT22;59358;52.134;5.596;2023-06-26T03:48:13;20.90;99.90
19206;DHT22;59358;52.134;5.596;2023-06-26T03:50:40;21.00;99.90
19206;DHT22;59358;52.134;5.596;2023-06-26T03:53:07;20.90;99.90
19206;DHT22;59358;52.134;5.596;2023-06-26T03:55:34;20.90;99.90
19206;DHT22;59358;52.134;5.596;2023-06-26T03:58:00;21.00;99.90
19206;DHT22;59358;52.134;5.596;2023-06-26T04:00:29;20.90;99.90
19206;DHT22;59358;52.134;5.596;2023-06-26T04:02:56;20.90;99.90
19206;DHT22;59358;52.134;5.596;2023-06-26T04:05:23;20.90;99.90
19206;DHT22;59358;52.134;5.596;2023-06-26T04:07:50;20.90;99.90
19206;DHT22;59358;52.134;5.596;2023-06-26T04:10:17;20.90;99.90
19206;DHT22;59358;52.134;5.596;2023-06-26T04:12:46;20.90;99.90
19206;DHT22;59358;52.134;5.596;2023-06-26T04:15:15;20.80;99.90
19206;DHT22;59358;52.134;5.596;2023-06-26T04:17:43;20.70;99.90
19206;DHT22;59358;52.134;5.596;2023-06-26T04:20:10;20.80;99.90
19206;DHT22;59358;52.134;5.596;2023-06-26T04:22:37;20.70;99.90
19206;DHT22;59358;52.134;5.596;2023-06-26T04:25:04;20.70;99.90
19206;DHT22;59358;52.134;5.596;2023-06-26T04:27:31;20.70;99.90
19206;DHT22;59358;52.134;5.596;2023-06-26T04:29:58;20.70;99.90
19206;DHT22;59358;52.134;5.596;2023-06-26T04:32:25;20.70;99.90
19206;DHT22;59358;52.134;5.596;2023-06-26T04:34:53;20.70;99.90
19206;DHT22;59358;52.134;5.596;2023-06-26T04:37:20;20.70;99.90
19206;DHT22;59358;52.134;5.596;2023-06-26T04:39:46;20.70;99.90
19206;DHT22;59358;52.134;5.596;2023-06-26T04:42:13;20.70;99.90
19206;DHT22;59358;52.134;5.596;2023-06-26T04:44:40;20.70;99.90
19206;DHT22;59358;52.134;5.596;2023-06-26T04:47:07;20.80;99.90
19206;DHT22;59358;52.134;5.596;2023-06-26T04:49:34;20.80;99.90
19206;DHT22;59358;52.134;5.596;2023-06-26T04:52:03;20.70;99.90
19206;DHT22;59358;52.134;5.596;2023-06-26T04:54:30;20.70;99.90
19206;DHT22;59358;52.134;5.596;2023-06-26T04:56:57;20.80;99.90
19206;DHT22;59358;52.134;5.596;2023-06-26T04:59:25;20.80;99.90
19206;DHT22;59358;52.134;5.596;2023-06-26T05:01:52;20.70;99.90
19206;DHT22;59358;52.134;5.596;2023-06-26T05:04:19;20.70;99.90
19206;DHT22;59358;52.134;5.596;2023-06-26T05:06:45;20.70;99.90
19206;DHT22;59358;52.134;5.596;2023-06-26T05:09:14;20.70;99.90
19206;DHT22;59358;52.134;5.596;2023-06-26T05:11:40;20.70;99.90
19206;DHT22;59358;52.134;5.596;2023-06-26T05:14:07;20.70;99.90
19206;DHT22;59358;52.134;5.596;2023-06-26T05:16:34;20.60;99.90
19206;DHT22;59358;52.134;5.596;2023-06-26T05:19:02;20.60;99.90
19206;DHT22;59358;52.134;5.596;2023-06-26T05:21:29;20.60;99.90
19206;DHT22;59358;52.134;5.596;2023-06-26T05:23:57;20.60;99.90
19206;DHT22;59358;52.134;5.596;2023-06-26T05:26:27;20.60;99.90
19206;DHT22;59358;52.134;5.596;2023-06-26T05:28:54;20.60;99.90
19206;DHT22;59358;52.134;5.596;2023-06-26T05:31:22;20.60;99.90
19206;DHT22;59358;52.134;5.596;2023-06-26T05:33:49;20.70;99.90
19206;DHT22;59358;52.134;5.596;2023-06-26T05:36:18;20.70;99.90
19206;DHT22;59358;52.134;5.596;2023-06-26T05:38:47;20.80;99.90
19206;DHT22;59358;52.134;5.596;2023-06-26T05:41:15;20.80;99.90
19206;DHT22;59358;52.134;5.596;2023-06-26T05:43:44;20.90;99.90
19206;DHT22;59358;52.134;5.596;2023-06-26T05:46:10;20.90;99.90
19206;DHT22;59358;52.134;5.596;2023-06-26T05:48:37;21.00;99.90
19206;DHT22;59358;52.134;5.596;2023-06-26T05:51:05;21.10;99.90
19206;DHT22;59358;52.134;5.596;2023-06-26T05:53:32;21.00;99.90
19206;DHT22;59358;52.134;5.596;2023-06-26T05:56:00;20.90;99.90
19206;DHT22;59358;52.134;5.596;2023-06-26T05:58:27;21.00;99.90
19206;DHT22;59358;52.134;5.596;2023-06-26T06:00:56;20.90;99.90
19206;DHT22;59358;52.134;5.596;2023-06-26T06:03:23;20.90;99.90
19206;DHT22;59358;52.134;5.596;2023-06-26T06:05:50;21.00;99.90
19206;DHT22;59358;52.134;5.596;2023-06-26T06:08:17;21.00;99.90
19206;DHT22;59358;52.134;5.596;2023-06-26T06:10:44;21.10;99.90
19206;DHT22;59358;52.134;5.596;2023-06-26T06:13:10;21.10;99.90
19206;DHT22;59358;52.134;5.596;2023-06-26T06:15:37;21.20;99.90
19206;DHT22;59358;52.134;5.596;2023-06-26T06:18:06;21.40;99.90
19206;DHT22;59358;52.134;5.596;2023-06-26T06:20:32;21.60;99.90
19206;DHT22;59358;52.134;5.596;2023-06-26T06:22:59;21.80;99.90
19206;DHT22;59358;52.134;5.596;2023-06-26T06:25:26;21.80;99.90
19206;DHT22;59358;52.134;5.596;2023-06-26T06:27:53;21.70;99.90
19206;DHT22;59358;52.134;5.596;2023-06-26T06:30:20;21.70;99.90
19206;DHT22;59358;52.134;5.596;2023-06-26T06:32:47;21.70;99.90
19206;DHT22;59358;52.134;5.596;2023-06-26T06:35:18;21.80;99.90
19206;DHT22;59358;52.134;5.596;2023-06-26T06:37:45;22.00;99.90
19206;DHT22;59358;52.134;5.596;2023-06-26T06:40:12;22.10;99.90
19206;DHT22;59358;52.134;5.596;2023-06-26T06:42:39;22.10;99.90
19206;DHT22;59358;52.134;5.596;2023-06-26T06:45:07;22.10;99.90
19206;DHT22;59358;52.134;5.596;2023-06-26T06:47:34;22.30;99.90
19206;DHT22;59358;52.134;5.596;2023-06-26T06:50:02;22.10;99.90
19206;DHT22;59358;52.134;5.596;2023-06-26T06:52:36;22.00;99.90
19206;DHT22;59358;52.134;5.596;2023-06-26T06:55:03;21.80;99.90
19206;DHT22;59358;52.134;5.596;2023-06-26T06:57:32;21.80;99.90
19206;DHT22;59358;52.134;5.596;2023-06-26T07:00:02;22.30;99.90
19206;DHT22;59358;52.134;5.596;2023-06-26T07:02:30;22.70;99.90
19206;DHT22;59358;52.134;5.596;2023-06-26T07:04:57;22.90;99.90
19206;DHT22;59358;52.134;5.596;2023-06-26T07:07:25;22.70;99.90
19206;DHT22;59358;52.134;5.596;2023-06-26T07:09:56;22.80;99.90
19206;DHT22;59358;52.134;5.596;2023-06-26T07:12:24;22.80;99.90
19206;DHT22;59358;52.134;5.596;2023-06-26T07:14:51;22.80;99.90
19206;DHT22;59358;52.134;5.596;2023-06-26T07:17:19;22.80;99.90
19206;DHT22;59358;52.134;5.596;2023-06-26T07:19:46;22.50;99.90
19206;DHT22;59358;52.134;5.596;2023-06-26T07:22:13;22.20;99.90
19206;DHT22;59358;52.134;5.596;2023-06-26T07:24:40;22.30;99.90
19206;DHT22;59358;52.134;5.596;2023-06-26T07:27:08;22.50;99.90
19206;DHT22;59358;52.134;5.596;2023-06-26T07:29:35;22.60;99.90
19206;DHT22;59358;52.134;5.596;2023-06-26T07:32:02;22.80;99.90
19206;DHT22;59358;52.134;5.596;2023-06-26T07:34:29;22.80;99.90
19206;DHT22;59358;52.134;5.596;2023-06-26T07:36:56;22.90;99.90
19206;DHT22;59358;52.134;5.596;2023-06-26T07:39:23;23.20;99.90
19206;DHT22;59358;52.134;5.596;2023-06-26T07:41:49;23.30;99.90
19206;DHT22;59358;52.134;5.596;2023-06-26T07:44:18;23.40;99.90
19206;DHT22;59358;52.134;5.596;2023-06-26T07:46:45;23.30;99.90
19206;DHT22;59358;52.134;5.596;2023-06-26T07:49:12;23.30;99.90
19206;DHT22;59358;52.134;5.596;2023-06-26T07:51:39;23.00;99.90
19206;DHT22;59358;52.134;5.596;2023-06-26T07:54:06;22.80;99.90
19206;DHT22;59358;52.134;5.596;2023-06-26T07:56:36;22.70;99.90
19206;DHT22;59358;52.134;5.596;2023-06-26T07:59:19;22.80;99.90
19206;DHT22;59358;52.134;5.596;2023-06-26T08:01:47;22.70;99.90
19206;DHT22;59358;52.134;5.596;2023-06-26T08:04:14;22.90;99.90
19206;DHT22;59358;52.134;5.596;2023-06-26T08:06:41;23.30;99.90
19206;DHT22;59358;52.134;5.596;2023-06-26T08:09:08;23.90;99.90
19206;DHT22;59358;52.134;5.596;2023-06-26T08:11:35;24.10;99.90
19206;DHT22;59358;52.134;5.596;2023-06-26T08:14:02;24.10;99.90
19206;DHT22;59358;52.134;5.596;2023-06-26T08:16:30;24.40;99.90
19206;DHT22;59358;52.134;5.596;2023-06-26T08:18:57;24.20;99.90
19206;DHT22;59358;52.134;5.596;2023-06-26T08:21:24;23.60;99.90
19206;DHT22;59358;52.134;5.596;2023-06-26T08:23:51;23.10;99.90
19206;DHT22;59358;52.134;5.596;2023-06-26T08:26:17;23.00;99.90
19206;DHT22;59358;52.134;5.596;2023-06-26T08:28:44;23.00;99.90
19206;DHT22;59358;52.134;5.596;2023-06-26T08:31:11;23.20;99.90
19206;DHT22;59358;52.134;5.596;2023-06-26T08:33:40;23.10;99.90
19206;DHT22;59358;52.134;5.596;2023-06-26T08:36:07;23.30;99.90
19206;DHT22;59358;52.134;5.596;2023-06-26T08:38:33;23.80;99.90
19206;DHT22;59358;52.134;5.596;2023-06-26T08:41:00;24.00;99.90
19206;DHT22;59358;52.134;5.596;2023-06-26T08:43:27;23.80;99.90
19206;DHT22;59358;52.134;5.596;2023-06-26T08:45:54;23.30;99.90
19206;DHT22;59358;52.134;5.596;2023-06-26T08:48:21;23.30;99.90
19206;DHT22;59358;52.134;5.596;2023-06-26T08:50:52;23.80;99.90
19206;DHT22;59358;52.134;5.596;2023-06-26T08:53:23;24.10;99.90
19206;DHT22;59358;52.134;5.596;2023-06-26T08:55:57;24.10;99.90
19206;DHT22;59358;52.134;5.596;2023-06-26T08:58:24;24.60;99.90
19206;DHT22;59358;52.134;5.596;2023-06-26T09:00:51;24.30;99.90
19206;DHT22;59358;52.134;5.596;2023-06-26T09:03:19;23.80;99.90
19206;DHT22;59358;52.134;5.596;2023-06-26T09:05:46;23.70;99.90
19206;DHT22;59358;52.134;5.596;2023-06-26T09:08:14;23.60;99.60
19206;DHT22;59358;52.134;5.596;2023-06-26T09:10:41;23.30;99.40
19206;DHT22;59358;52.134;5.596;2023-06-26T09:13:08;23.40;98.50
19206;DHT22;59358;52.134;5.596;2023-06-26T09:15:38;23.60;98.30
19206;DHT22;59358;52.134;5.596;2023-06-26T09:18:05;23.30;99.20
19206;DHT22;59358;52.134;5.596;2023-06-26T09:20:33;23.30;99.80
19206;DHT22;59358;52.134;5.596;2023-06-26T09:23:00;23.40;99.40
19206;DHT22;59358;52.134;5.596;2023-06-26T09:25:29;23.40;98.60
19206;DHT22;59358;52.134;5.596;2023-06-26T09:27:56;23.50;98.90
19206;DHT22;59358;52.134;5.596;2023-06-26T09:30:24;23.30;99.40
19206;DHT22;59358;52.134;5.596;2023-06-26T09:32:51;23.50;99.70
19206;DHT22;59358;52.134;5.596;2023-06-26T09:35:19;23.40;98.40
19206;DHT22;59358;52.134;5.596;2023-06-26T09:37:46;22.90;98.60
19206;DHT22;59358;52.134;5.596;2023-06-26T09:40:14;22.80;99.00
19206;DHT22;59358;52.134;5.596;2023-06-26T09:42:43;23.10;98.90
19206;DHT22;59358;52.134;5.596;2023-06-26T09:45:18;23.20;98.70
19206;DHT22;59358;52.134;5.596;2023-06-26T09:47:46;23.30;98.60
19206;DHT22;59358;52.134;5.596;2023-06-26T09:50:21;23.50;98.80
19206;DHT22;59358;52.134;5.596;2023-06-26T09:52:51;23.80;98.60
19206;DHT22;59358;52.134;5.596;2023-06-26T09:55:19;24.00;97.00
19206;DHT22;59358;52.134;5.596;2023-06-26T09:57:49;24.10;97.70
19206;DHT22;59358;52.134;5.596;2023-06-26T10:00:18;24.10;97.00
19206;DHT22;59358;52.134;5.596;2023-06-26T10:02:45;24.10;96.80
19206;DHT22;59358;52.134;5.596;2023-06-26T10:05:12;24.10;97.30
19206;DHT22;59358;52.134;5.596;2023-06-26T10:07:39;24.30;96.80
19206;DHT22;59358;52.134;5.596;2023-06-26T10:10:08;23.80;97.00
19206;DHT22;59358;52.134;5.596;2023-06-26T10:12:36;23.70;97.50
19206;DHT22;59358;52.134;5.596;2023-06-26T10:15:06;23.50;97.20
19206;DHT22;59358;52.134;5.596;2023-06-26T10:17:39;23.70;96.60
19206;DHT22;59358;52.134;5.596;2023-06-26T10:20:09;24.00;96.40
19206;DHT22;59358;52.134;5.596;2023-06-26T10:22:41;24.30;96.40
19206;DHT22;59358;52.134;5.596;2023-06-26T10:25:10;24.40;96.50
19206;DHT22;59358;52.134;5.596;2023-06-26T10:27:40;24.40;96.60
19206;DHT22;59358;52.134;5.596;2023-06-26T10:30:14;24.20;96.10
19206;DHT22;59358;52.134;5.596;2023-06-26T10:32:43;24.10;96.80
19206;DHT22;59358;52.134;5.596;2023-06-26T10:35:10;24.30;95.10
19206;DHT22;59358;52.134;5.596;2023-06-26T10:37:41;24.10;95.60
19206;DHT22;59358;52.134;5.596;2023-06-26T10:40:08;24.50;95.50
19206;DHT22;59358;52.134;5.596;2023-06-26T10:42:37;24.50;95.40
19206;DHT22;59358;52.134;5.596;2023-06-26T10:45:16;25.00;94.20
19206;DHT22;59358;52.134;5.596;2023-06-26T10:47:46;25.00;93.60
19206;DHT22;59358;52.134;5.596;2023-06-26T10:50:24;24.70;94.70
19206;DHT22;59358;52.134;5.596;2023-06-26T10:53:08;24.00;94.90
19206;DHT22;59358;52.134;5.596;2023-06-26T10:55:36;23.70;95.30
19206;DHT22;59358;52.134;5.596;2023-06-26T10:58:03;23.70;95.60
19206;DHT22;59358;52.134;5.596;2023-06-26T11:00:32;24.00;94.40
19206;DHT22;59358;52.134;5.596;2023-06-26T11:02:59;24.20;95.00
19206;DHT22;59358;52.134;5.596;2023-06-26T11:05:27;24.20;94.40
19206;DHT22;59358;52.134;5.596;2023-06-26T11:08:05;24.30;94.30
19206;DHT22;59358;52.134;5.596;2023-06-26T11:10:50;24.40;94.80
19206;DHT22;59358;52.134;5.596;2023-06-26T11:13:18;24.60;94.50
19206;DHT22;59358;52.134;5.596;2023-06-26T11:15:50;24.50;93.60
19206;DHT22;59358;52.134;5.596;2023-06-26T11:18:17;24.40;94.00
19206;DHT22;59358;52.134;5.596;2023-06-26T11:20:45;24.80;93.80
19206;DHT22;59358;52.134;5.596;2023-06-26T11:23:12;24.30;94.60
19206;DHT22;59358;52.134;5.596;2023-06-26T11:25:39;23.90;94.00
19206;DHT22;59358;52.134;5.596;2023-06-26T11:28:09;23.80;94.60
19206;DHT22;59358;52.134;5.596;2023-06-26T11:30:36;24.10;94.60
19206;DHT22;59358;52.134;5.596;2023-06-26T11:33:09;24.30;93.40
19206;DHT22;59358;52.134;5.596;2023-06-26T11:35:36;24.40;93.10
19206;DHT22;59358;52.134;5.596;2023-06-26T11:38:04;24.90;92.90
19206;DHT22;59358;52.134;5.596;2023-06-26T11:40:32;25.10;92.00
19206;DHT22;59358;52.134;5.596;2023-06-26T11:43:00;25.10;93.70
19206;DHT22;59358;52.134;5.596;2023-06-26T11:45:28;24.80;92.40
19206;DHT22;59358;52.134;5.596;2023-06-26T11:47:55;24.70;92.00
19206;DHT22;59358;52.134;5.596;2023-06-26T11:50:24;24.50;91.60
19206;DHT22;59358;52.134;5.596;2023-06-26T11:52:54;24.70;92.10
19206;DHT22;59358;52.134;5.596;2023-06-26T11:55:22;24.70;92.80
19206;DHT22;59358;52.134;5.596;2023-06-26T11:57:49;24.90;93.20
19206;DHT22;59358;52.134;5.596;2023-06-26T12:00:17;24.70;93.20
19206;DHT22;59358;52.134;5.596;2023-06-26T12:02:45;24.70;92.10
19206;DHT22;59358;52.134;5.596;2023-06-26T12:05:13;25.00;92.40
19206;DHT22;59358;52.134;5.596;2023-06-26T12:07:42;25.30;92.90
19206;DHT22;59358;52.134;5.596;2023-06-26T12:10:10;25.50;91.30
19206;DHT22;59358;52.134;5.596;2023-06-26T12:12:38;25.60;90.60
19206;DHT22;59358;52.134;5.596;2023-06-26T12:15:07;25.30;90.40
19206;DHT22;59358;52.134;5.596;2023-06-26T12:17:37;25.60;90.10
19206;DHT22;59358;52.134;5.596;2023-06-26T12:20:05;25.70;90.90
19206;DHT22;59358;52.134;5.596;2023-06-26T12:22:35;25.30;90.30
19206;DHT22;59358;52.134;5.596;2023-06-26T12:25:03;24.70;91.60
19206;DHT22;59358;52.134;5.596;2023-06-26T12:27:33;25.00;91.00
19206;DHT22;59358;52.134;5.596;2023-06-26T12:30:04;25.60;89.80
19206;DHT22;59358;52.134;5.596;2023-06-26T12:32:31;25.50;89.00
19206;DHT22;59358;52.134;5.596;2023-06-26T12:34:58;25.30;85.30
19206;DHT22;59358;52.134;5.596;2023-06-26T12:37:25;25.20;88.70
19206;DHT22;59358;52.134;5.596;2023-06-26T12:39:52;25.40;86.70
19206;DHT22;59358;52.134;5.596;2023-06-26T12:42:22;25.40;85.60
19206;DHT22;59358;52.134;5.596;2023-06-26T12:44:50;25.60;86.20
19206;DHT22;59358;52.134;5.596;2023-06-26T12:47:19;25.70;86.90
19206;DHT22;59358;52.134;5.596;2023-06-26T12:49:50;25.50;86.60
19206;DHT22;59358;52.134;5.596;2023-06-26T12:52:18;25.40;89.20
19206;DHT22;59358;52.134;5.596;2023-06-26T12:54:45;25.20;89.30
19206;DHT22;59358;52.134;5.596;2023-06-26T12:57:13;24.90;90.10
19206;DHT22;59358;52.134;5.596;2023-06-26T12:59:42;25.10;88.10
19206;DHT22;59358;52.134;5.596;2023-06-26T13:02:09;25.40;88.20
19206;DHT22;59358;52.134;5.596;2023-06-26T13:04:37;25.70;88.70
19206;DHT22;59358;52.134;5.596;2023-06-26T13:07:06;25.90;87.10
19206;DHT22;59358;52.134;5.596;2023-06-26T13:09:33;25.60;87.10
19206;DHT22;59358;52.134;5.596;2023-06-26T13:12:01;25.50;87.00
19206;DHT22;59358;52.134;5.596;2023-06-26T13:14:29;25.30;87.40
19206;DHT22;59358;52.134;5.596;2023-06-26T13:16:57;25.10;87.80
19206;DHT22;59358;52.134;5.596;2023-06-26T13:19:24;25.00;87.60
19206;DHT22;59358;52.134;5.596;2023-06-26T13:21:51;24.80;87.40
19206;DHT22;59358;52.134;5.596;2023-06-26T13:24:19;25.00;87.60
19206;DHT22;59358;52.134;5.596;2023-06-26T13:26:46;25.30;85.10
19206;DHT22;59358;52.134;5.596;2023-06-26T13:29:13;25.20;86.00
19206;DHT22;59358;52.134;5.596;2023-06-26T13:31:41;25.10;87.30
19206;DHT22;59358;52.134;5.596;2023-06-26T13:34:20;24.90;89.70
19206;DHT22;59358;52.134;5.596;2023-06-26T13:36:47;25.30;85.60
19206;DHT22;59358;52.134;5.596;2023-06-26T13:39:14;24.60;89.00
19206;DHT22;59358;52.134;5.596;2023-06-26T13:41:41;24.80;90.00
19206;DHT22;59358;52.134;5.596;2023-06-26T13:44:08;25.30;87.60
19206;DHT22;59358;52.134;5.596;2023-06-26T13:46:35;25.60;89.00
19206;DHT22;59358;52.134;5.596;2023-06-26T13:49:02;25.60;88.20
19206;DHT22;59358;52.134;5.596;2023-06-26T13:51:30;25.50;89.50
19206;DHT22;59358;52.134;5.596;2023-06-26T13:53:57;26.10;87.70
19206;DHT22;59358;52.134;5.596;2023-06-26T13:56:25;26.30;87.10
19206;DHT22;59358;52.134;5.596;2023-06-26T13:58:53;26.10;86.90
19206;DHT22;59358;52.134;5.596;2023-06-26T14:01:20;25.50;88.10
19206;DHT22;59358;52.134;5.596;2023-06-26T14:03:47;25.70;87.40
19206;DHT22;59358;52.134;5.596;2023-06-26T14:06:14;25.90;87.10
19206;DHT22;59358;52.134;5.596;2023-06-26T14:08:42;25.60;88.10
19206;DHT22;59358;52.134;5.596;2023-06-26T14:11:09;25.40;88.30
19206;DHT22;59358;52.134;5.596;2023-06-26T14:13:36;25.10;87.10
19206;DHT22;59358;52.134;5.596;2023-06-26T14:16:04;24.90;89.00
19206;DHT22;59358;52.134;5.596;2023-06-26T14:18:31;25.60;89.00
19206;DHT22;59358;52.134;5.596;2023-06-26T14:20:58;26.40;87.20
19206;DHT22;59358;52.134;5.596;2023-06-26T14:23:25;26.60;86.50
19206;DHT22;59358;52.134;5.596;2023-06-26T14:25:53;26.80;88.40
19206;DHT22;59358;52.134;5.596;2023-06-26T14:28:20;26.10;86.80
19206;DHT22;59358;52.134;5.596;2023-06-26T14:30:49;25.50;88.80
19206;DHT22;59358;52.134;5.596;2023-06-26T14:33:15;25.20;87.30
19206;DHT22;59358;52.134;5.596;2023-06-26T14:35:42;25.10;87.80
19206;DHT22;59358;52.134;5.596;2023-06-26T14:38:09;24.80;90.20
19206;DHT22;59358;52.134;5.596;2023-06-26T14:40:36;24.30;89.80
19206;DHT22;59358;52.134;5.596;2023-06-26T14:43:04;24.60;89.60
19206;DHT22;59358;52.134;5.596;2023-06-26T14:45:31;25.30;87.60
19206;DHT22;59358;52.134;5.596;2023-06-26T14:47:58;25.50;87.10
19206;DHT22;59358;52.134;5.596;2023-06-26T14:50:24;26.00;87.60
19206;DHT22;59358;52.134;5.596;2023-06-26T14:52:51;26.50;88.00
19206;DHT22;59358;52.134;5.596;2023-06-26T14:55:18;27.10;85.90
19206;DHT22;59358;52.134;5.596;2023-06-26T14:57:45;27.80;82.20
19206;DHT22;59358;52.134;5.596;2023-06-26T15:00:14;28.20;83.30
19206;DHT22;59358;52.134;5.596;2023-06-26T15:02:41;27.80;81.40
19206;DHT22;59358;52.134;5.596;2023-06-26T15:05:09;28.00;82.50
19206;DHT22;59358;52.134;5.596;2023-06-26T15:07:35;28.40;79.20
19206;DHT22;59358;52.134;5.596;2023-06-26T15:10:03;28.30;79.70
19206;DHT22;59358;52.134;5.596;2023-06-26T15:12:31;28.10;80.70
19206;DHT22;59358;52.134;5.596;2023-06-26T15:14:58;28.20;79.10
19206;DHT22;59358;52.134;5.596;2023-06-26T15:17:26;28.40;79.90
19206;DHT22;59358;52.134;5.596;2023-06-26T15:19:53;29.20;79.20
19206;DHT22;59358;52.134;5.596;2023-06-26T15:22:22;29.20;79.00
19206;DHT22;59358;52.134;5.596;2023-06-26T15:24:52;28.40;78.30
19206;DHT22;59358;52.134;5.596;2023-06-26T15:27:19;29.10;79.50
19206;DHT22;59358;52.134;5.596;2023-06-26T15:29:47;30.20;78.30
19206;DHT22;59358;52.134;5.596;2023-06-26T15:32:14;31.80;75.70
19206;DHT22;59358;52.134;5.596;2023-06-26T15:34:43;32.30;72.00